createdAt,value
2023-05-08T00:01:17.595Z,14.06
2023-05-08T00:03:44.257Z,14.03
2023-05-08T00:06:10.919Z,14.00
2023-05-08T00:08:37.441Z,13.94
2023-05-08T00:11:03.944Z,13.95
2023-05-08T00:13:30.592Z,13.91
2023-05-08T00:15:57.160Z,13.86
2023-05-08T00:18:23.840Z,13.85
2023-05-08T00:20:50.369Z,13.78
2023-05-08T00:23:16.800Z,13.78
2023-05-08T00:25:43.668Z,13.74
2023-05-08T00:28:10.175Z,13.73
2023-05-08T00:30:36.837Z,13.69
2023-05-08T00:33:03.442Z,13.68
2023-05-08T00:35:29.955Z,13.64
2023-05-08T00:37:56.467Z,13.59
2023-05-08T00:40:23.012Z,13.56
2023-05-08T00:42:49.481Z,13.55
2023-05-08T00:45:15.942Z,13.55
2023-05-08T00:47:42.783Z,13.49
2023-05-08T00:50:10.697Z,13.50
2023-05-08T00:52:37.846Z,13.48
2023-05-08T00:55:05.651Z,13.46
2023-05-08T00:57:35.714Z,13.40
2023-05-08T01:00:04.326Z,13.40
2023-05-08T01:02:32.047Z,13.37
2023-05-08T01:04:58.997Z,13.33
2023-05-08T01:07:26.083Z,13.32
2023-05-08T01:09:53.382Z,13.33
2023-05-08T01:12:25.872Z,13.29
2023-05-08T01:15:10.747Z,13.30
2023-05-08T01:17:41.194Z,13.31
2023-05-08T01:20:48.879Z,13.32
2023-05-08T01:23:52.719Z,13.28
2023-05-08T01:26:55.970Z,13.26
2023-05-08T01:29:51.604Z,13.24
2023-05-08T01:32:52.283Z,13.17
2023-05-08T01:35:29.903Z,13.14
2023-05-08T01:38:12.652Z,13.12
2023-05-08T01:41:07.030Z,13.10
2023-05-08T01:43:37.124Z,13.09
2023-05-08T01:46:10.021Z,13.07
2023-05-08T01:48:44.489Z,13.04
2023-05-08T01:51:20.786Z,12.99
2023-05-08T01:54:00.832Z,12.95
2023-05-08T01:56:29.722Z,12.93
2023-05-08T01:58:59.026Z,12.90
2023-05-08T02:01:29.367Z,12.88
2023-05-08T02:03:56.585Z,12.83
2023-05-08T02:06:25.098Z,12.82
2023-05-08T02:08:53.581Z,12.79
2023-05-08T02:11:21.627Z,12.78
2023-05-08T02:13:49.896Z,12.76
2023-05-08T02:16:19.017Z,12.74
2023-05-08T02:18:51.080Z,12.60
2023-05-08T02:21:19.763Z,12.70
2023-05-08T02:23:47.183Z,12.65
2023-05-08T02:26:17.005Z,12.63
2023-05-08T02:28:44.316Z,12.57
2023-05-08T02:31:12.416Z,12.56
2023-05-08T02:33:42.001Z,12.52
2023-05-08T02:36:10.879Z,12.57
2023-05-08T02:38:39.787Z,12.57
2023-05-08T02:41:07.895Z,12.51
2023-05-08T02:43:35.172Z,12.43
2023-05-08T02:46:12.906Z,12.46
2023-05-08T02:49:02.322Z,12.43
2023-05-08T02:51:46.600Z,12.38
2023-05-08T02:54:56.175Z,12.34
2023-05-08T02:57:50.878Z,12.31
2023-05-08T03:00:26.980Z,12.25
2023-05-08T03:02:59.598Z,12.13
2023-05-08T03:05:31.718Z,12.11
2023-05-08T03:08:03.817Z,12.09
2023-05-08T03:10:34.875Z,12.08
2023-05-08T03:13:05.030Z,12.10
2023-05-08T03:15:43.292Z,12.06
2023-05-08T03:18:14.917Z,12.05
2023-05-08T03:20:46.377Z,12.01
2023-05-08T03:23:15.570Z,12.00
2023-05-08T03:25:43.734Z,11.98
2023-05-08T03:28:11.430Z,11.94
2023-05-08T03:30:40.239Z,11.96
2023-05-08T03:33:08.514Z,11.96
2023-05-08T03:35:39.179Z,11.94
2023-05-08T03:38:06.847Z,11.93
2023-05-08T03:40:38.699Z,11.89
2023-05-08T03:43:08.692Z,11.87
2023-05-08T03:45:37.327Z,11.88
2023-05-08T03:48:06.189Z,11.84
2023-05-08T03:50:35.521Z,11.78
2023-05-08T03:53:02.267Z,11.77
2023-05-08T03:55:30.527Z,11.76
2023-05-08T03:58:03.225Z,11.77
2023-05-08T04:00:37.805Z,11.74
2023-05-08T04:03:19.672Z,11.77
2023-05-08T04:06:10.893Z,11.77
2023-05-08T04:08:48.266Z,11.74
2023-05-08T04:11:42.885Z,11.75
2023-05-08T04:14:16.216Z,11.68
2023-05-08T04:16:49.894Z,11.71
2023-05-08T04:19:23.004Z,11.67
2023-05-08T04:21:50.963Z,11.70
2023-05-08T04:24:19.578Z,11.65
2023-05-08T04:26:46.273Z,11.64
2023-05-08T04:29:13.935Z,11.60
2023-05-08T04:31:41.381Z,11.59
2023-05-08T04:34:09.212Z,11.60
2023-05-08T04:36:35.737Z,11.60
2023-05-08T04:39:02.186Z,11.58
2023-05-08T04:41:28.808Z,11.57
2023-05-08T04:43:55.501Z,11.64
2023-05-08T04:46:22.017Z,11.66
2023-05-08T04:48:48.546Z,11.68
2023-05-08T04:51:14.979Z,11.72
2023-05-08T04:53:41.403Z,11.79
2023-05-08T04:56:08.389Z,11.80
2023-05-08T04:58:34.822Z,11.88
2023-05-08T05:01:05.332Z,11.96
2023-05-08T05:03:31.944Z,12.07
2023-05-08T05:05:59.506Z,12.12
2023-05-08T05:08:26.907Z,12.16
2023-05-08T05:10:53.439Z,12.21
2023-05-08T05:13:20.282Z,12.26
2023-05-08T05:15:46.922Z,12.31
2023-05-08T05:18:13.458Z,12.33
2023-05-08T05:20:40.168Z,12.42
2023-05-08T05:23:06.608Z,12.48
2023-05-08T05:25:33.118Z,12.57
2023-05-08T05:27:59.636Z,12.63
2023-05-08T05:30:26.141Z,12.70
2023-05-08T05:32:52.699Z,12.77
2023-05-08T05:35:20.445Z,12.82
2023-05-08T05:37:46.895Z,12.88
2023-05-08T05:40:13.435Z,12.91
2023-05-08T05:42:39.925Z,12.96
2023-05-08T05:45:07.095Z,12.99
2023-05-08T05:47:33.628Z,13.03
2023-05-08T05:50:00.150Z,13.03
2023-05-08T05:52:26.768Z,13.07
2023-05-08T05:54:56.165Z,13.12
2023-05-08T05:57:22.828Z,13.17
2023-05-08T05:59:49.562Z,13.23
2023-05-08T06:02:18.673Z,13.28
2023-05-08T06:04:45.486Z,13.36
2023-05-08T06:07:12.051Z,13.39
2023-05-08T06:09:38.591Z,13.43
2023-05-08T06:12:05.233Z,13.47
2023-05-08T06:14:31.785Z,13.50
2023-05-08T06:16:58.325Z,13.53
2023-05-08T06:19:24.879Z,13.57
2023-05-08T06:21:54.609Z,13.64
2023-05-08T06:24:21.026Z,13.68
2023-05-08T06:26:47.759Z,13.73
2023-05-08T06:29:14.945Z,13.79
2023-05-08T06:31:42.185Z,13.87
2023-05-08T06:34:09.192Z,13.91
2023-05-08T06:36:36.359Z,14.01
2023-05-08T06:39:06.166Z,14.07
2023-05-08T06:41:32.702Z,14.15
2023-05-08T06:43:59.388Z,14.26
2023-05-08T06:46:26.019Z,14.36
2023-05-08T06:48:52.528Z,14.49
2023-05-08T06:51:19.895Z,14.61
2023-05-08T06:53:46.395Z,14.70
2023-05-08T06:56:12.896Z,14.83
2023-05-08T06:58:39.344Z,15.01
2023-05-08T07:01:06.006Z,15.04
2023-05-08T07:03:32.803Z,15.08
2023-05-08T07:05:59.226Z,15.11
2023-05-08T07:08:25.980Z,15.19
2023-05-08T07:10:53.186Z,15.31
2023-05-08T07:13:21.941Z,15.43
2023-05-08T07:15:51.516Z,15.55
2023-05-08T07:18:18.086Z,15.51
2023-05-08T07:20:44.579Z,15.61
2023-05-08T07:23:11.066Z,15.66
2023-05-08T07:25:37.554Z,15.80
2023-05-08T07:28:04.230Z,15.93
2023-05-08T07:30:31.536Z,15.98
2023-05-08T07:32:58.047Z,16.00
2023-05-08T07:35:24.915Z,16.17
2023-05-08T07:37:51.367Z,16.28
2023-05-08T07:40:17.954Z,16.37
2023-05-08T07:42:45.522Z,16.43
2023-05-08T07:45:13.667Z,16.56
2023-05-08T07:47:49.537Z,16.66
2023-05-08T07:50:16.112Z,16.67
2023-05-08T07:52:45.649Z,16.78
2023-05-08T07:55:39.279Z,16.75
2023-05-08T07:58:06.668Z,16.59
2023-05-08T08:00:33.360Z,16.52
2023-05-08T08:02:59.966Z,16.53
2023-05-08T08:05:26.532Z,16.50
2023-05-08T08:07:53.024Z,16.60
2023-05-08T08:10:19.481Z,16.69
2023-05-08T08:12:46.072Z,16.70
2023-05-08T08:15:12.821Z,16.58
2023-05-08T08:17:39.490Z,16.51
2023-05-08T08:20:06.872Z,16.71
2023-05-08T08:22:33.408Z,16.85
2023-05-08T08:24:59.881Z,16.90
2023-05-08T08:27:26.321Z,17.03
2023-05-08T08:30:01.499Z,17.13
2023-05-08T08:32:39.022Z,17.22
2023-05-08T08:35:05.909Z,16.98
2023-05-08T08:37:32.411Z,16.97
2023-05-08T08:39:59.942Z,16.92
2023-05-08T08:42:26.400Z,16.88
2023-05-08T08:44:52.895Z,16.95
2023-05-08T08:47:22.749Z,17.16
2023-05-08T08:49:51.009Z,17.15
2023-05-08T08:52:32.000Z,17.19
2023-05-08T08:55:02.414Z,17.23
2023-05-08T08:57:33.882Z,17.38
2023-05-08T09:00:05.251Z,17.40
2023-05-08T09:02:31.967Z,17.33
2023-05-08T09:04:59.384Z,17.59
2023-05-08T09:07:26.864Z,17.64
2023-05-08T09:09:54.306Z,17.83
2023-05-08T09:12:20.984Z,17.79
2023-05-08T09:14:47.700Z,17.83
2023-05-08T09:17:14.421Z,17.92
2023-05-08T09:19:41.214Z,17.86
2023-05-08T09:22:09.294Z,17.83
2023-05-08T09:24:59.065Z,17.71
2023-05-08T09:27:27.634Z,17.70
2023-05-08T09:30:14.590Z,17.71
2023-05-08T09:32:43.291Z,17.85
2023-05-08T09:35:11.158Z,17.75
2023-05-08T09:37:39.367Z,17.67
2023-05-08T09:40:17.549Z,17.72
2023-05-08T09:42:44.578Z,17.70
2023-05-08T09:45:11.892Z,17.71
2023-05-08T09:47:39.926Z,17.75
2023-05-08T09:50:09.160Z,17.75
2023-05-08T09:52:37.277Z,17.75
2023-05-08T09:55:03.804Z,17.66
2023-05-08T09:57:53.788Z,17.71
2023-05-08T10:00:20.748Z,17.72
2023-05-08T10:03:06.241Z,17.69
2023-05-08T10:05:35.850Z,17.64
2023-05-08T10:08:26.852Z,17.72
2023-05-08T10:10:53.327Z,17.87
2023-05-08T10:13:19.849Z,17.95
2023-05-08T10:15:54.450Z,17.94
2023-05-08T10:18:24.353Z,17.90
2023-05-08T10:20:53.603Z,18.03
2023-05-08T10:23:20.443Z,18.04
2023-05-08T10:25:48.720Z,18.26
2023-05-08T10:28:25.809Z,18.37
2023-05-08T10:30:56.831Z,18.53
2023-05-08T10:33:31.069Z,18.69
2023-05-08T10:35:58.870Z,18.85
2023-05-08T10:38:25.760Z,18.98
2023-05-08T10:40:58.280Z,18.94
2023-05-08T10:43:25.700Z,18.95
2023-05-08T10:45:55.581Z,19.05
2023-05-08T10:48:47.238Z,19.01
2023-05-08T10:51:27.564Z,19.04
2023-05-08T10:53:59.456Z,19.13
2023-05-08T10:56:29.216Z,19.22
2023-05-08T10:58:57.519Z,19.14
2023-05-08T11:01:24.934Z,19.05
2023-05-08T11:03:52.551Z,19.06
2023-05-08T11:06:46.541Z,19.04
2023-05-08T11:09:26.973Z,18.84
2023-05-08T11:12:24.375Z,18.79
2023-05-08T11:14:59.972Z,18.68
2023-05-08T11:17:26.761Z,18.57
2023-05-08T11:20:01.439Z,18.62
2023-05-08T11:22:32.730Z,18.61
2023-05-08T11:25:11.906Z,18.63
2023-05-08T11:27:44.316Z,18.59
2023-05-08T11:30:37.197Z,18.69
2023-05-08T11:33:04.001Z,18.77
2023-05-08T11:35:56.594Z,18.79
2023-05-08T11:38:28.935Z,19.11
2023-05-08T11:41:00.843Z,19.23
2023-05-08T11:43:33.367Z,19.35
2023-05-08T11:46:08.343Z,19.30
2023-05-08T11:48:35.984Z,19.23
2023-05-08T11:51:03.576Z,19.27
2023-05-08T11:53:31.350Z,19.15
2023-05-08T11:55:59.236Z,19.45
2023-05-08T11:58:26.541Z,19.81
2023-05-08T12:00:54.714Z,20.20
2023-05-08T12:03:25.095Z,20.45
2023-05-08T12:05:55.540Z,20.65
2023-05-08T12:08:22.144Z,20.60
2023-05-08T12:10:54.362Z,20.43
2023-05-08T12:13:30.206Z,20.42
2023-05-08T12:15:59.752Z,20.02
2023-05-08T12:18:28.270Z,19.95
2023-05-08T12:20:58.797Z,19.95
2023-05-08T12:23:26.486Z,19.85
2023-05-08T12:25:55.308Z,19.94
2023-05-08T12:28:22.741Z,19.79
2023-05-08T12:30:50.121Z,19.68
2023-05-08T12:33:17.292Z,19.67
2023-05-08T12:35:44.181Z,19.62
2023-05-08T12:38:11.958Z,19.77
2023-05-08T12:40:43.567Z,19.72
2023-05-08T12:43:11.677Z,19.78
2023-05-08T12:45:40.372Z,19.85
2023-05-08T12:48:09.429Z,19.83
2023-05-08T12:50:44.283Z,19.89
2023-05-08T12:53:15.580Z,20.02
2023-05-08T12:55:52.788Z,20.09
2023-05-08T12:58:20.452Z,20.06
2023-05-08T13:00:52.510Z,20.12
2023-05-08T13:03:25.651Z,20.28
2023-05-08T13:05:53.292Z,20.40
2023-05-08T13:08:20.123Z,20.45
2023-05-08T13:10:51.832Z,20.47
2023-05-08T13:13:31.041Z,20.49
2023-05-08T13:15:58.337Z,20.62
2023-05-08T13:18:27.519Z,20.63
2023-05-08T13:20:56.142Z,20.86
2023-05-08T13:23:23.464Z,21.06
2023-05-08T13:25:50.679Z,21.21
2023-05-08T13:28:17.717Z,21.30
2023-05-08T13:30:44.184Z,21.39
2023-05-08T13:33:10.784Z,21.48
2023-05-08T13:35:37.314Z,21.55
2023-05-08T13:38:03.793Z,21.61
2023-05-08T13:40:30.269Z,21.70
2023-05-08T13:42:56.804Z,21.60
2023-05-08T13:45:23.376Z,21.70
2023-05-08T13:47:50.514Z,21.65
2023-05-08T13:50:19.515Z,21.65
2023-05-08T13:52:45.957Z,21.68
2023-05-08T13:55:13.800Z,21.66
2023-05-08T13:57:41.216Z,21.67
2023-05-08T14:00:09.032Z,21.83
2023-05-08T14:02:37.261Z,21.95
2023-05-08T14:05:04.544Z,21.92
2023-05-08T14:07:31.071Z,21.98
2023-05-08T14:09:57.614Z,22.06
2023-05-08T14:12:24.097Z,22.13
2023-05-08T14:14:50.598Z,21.94
2023-05-08T14:17:17.063Z,21.72
2023-05-08T14:19:43.562Z,21.86
2023-05-08T14:22:10.089Z,21.87
2023-05-08T14:24:36.590Z,22.02
2023-05-08T14:27:05.912Z,22.32
2023-05-08T14:29:35.883Z,22.83
2023-05-08T14:32:02.681Z,23.15
2023-05-08T14:34:29.246Z,23.27
2023-05-08T14:36:55.765Z,23.55
2023-05-08T14:39:22.245Z,23.57
2023-05-08T14:42:10.315Z,23.92
2023-05-08T14:44:35.259Z,23.87
2023-05-08T14:47:01.773Z,23.63
2023-05-08T14:49:37.479Z,23.57
2023-05-08T14:52:06.379Z,23.61
2023-05-08T14:54:33.181Z,23.67
2023-05-08T14:57:00.142Z,23.54
2023-05-08T14:59:26.680Z,23.45
2023-05-08T15:01:53.275Z,23.70
2023-05-08T15:04:19.856Z,23.81
2023-05-08T15:06:46.702Z,23.98
2023-05-08T15:09:13.161Z,23.43
2023-05-08T15:11:39.728Z,22.88
2023-05-08T15:14:06.302Z,22.61
2023-05-08T15:16:32.981Z,22.57
2023-05-08T15:19:00.091Z,22.50
2023-05-08T15:21:27.407Z,22.53
2023-05-08T15:23:55.130Z,22.43
2023-05-08T15:26:22.485Z,22.25
2023-05-08T15:28:49.117Z,22.13
2023-05-08T15:31:15.933Z,22.07
2023-05-08T15:33:44.979Z,22.00
2023-05-08T15:36:13.400Z,21.93
2023-05-08T15:38:43.559Z,21.86
2023-05-08T15:41:14.758Z,21.91
2023-05-08T15:43:42.272Z,21.78
2023-05-08T15:46:08.852Z,21.56
2023-05-08T15:48:35.449Z,21.61
2023-05-08T15:51:01.905Z,21.60
2023-05-08T15:53:28.478Z,21.52
2023-05-08T15:55:56.818Z,21.42
2023-05-08T15:58:23.345Z,21.34
2023-05-08T16:00:49.892Z,21.13
2023-05-08T16:03:16.505Z,21.09
2023-05-08T16:05:43.497Z,21.08
2023-05-08T16:08:12.675Z,20.95
2023-05-08T16:10:40.740Z,21.03
2023-05-08T16:13:07.631Z,21.15
2023-05-08T16:15:34.178Z,21.32
2023-05-08T16:18:00.718Z,21.34
2023-05-08T16:20:27.190Z,21.28
2023-05-08T16:23:02.670Z,21.46
2023-05-08T16:25:29.206Z,21.51
2023-05-08T16:27:55.760Z,21.54
2023-05-08T16:30:22.285Z,21.52
2023-05-08T16:32:48.798Z,21.44
2023-05-08T16:35:15.811Z,21.37
2023-05-08T16:37:42.800Z,21.20
2023-05-08T16:40:10.329Z,21.21
2023-05-08T16:42:37.576Z,21.16
2023-05-08T16:45:08.243Z,21.09
2023-05-08T16:47:35.343Z,20.98
2023-05-08T16:50:02.109Z,20.78
2023-05-08T16:52:28.895Z,20.75
2023-05-08T16:54:55.437Z,20.56
2023-05-08T16:57:21.919Z,20.42
2023-05-08T16:59:48.388Z,20.26
2023-05-08T17:02:18.713Z,20.13
2023-05-08T17:04:49.284Z,20.04
2023-05-08T17:07:16.386Z,19.87
2023-05-08T17:09:43.109Z,19.82
2023-05-08T17:12:09.928Z,19.69
2023-05-08T17:14:39.216Z,19.65
2023-05-08T17:17:06.169Z,19.61
2023-05-08T17:19:32.709Z,19.61
2023-05-08T17:21:59.834Z,19.57
2023-05-08T17:24:26.578Z,19.46
2023-05-08T17:26:53.082Z,19.46
2023-05-08T17:29:19.560Z,19.41
2023-05-08T17:31:46.143Z,19.32
2023-05-08T17:34:12.764Z,19.26
2023-05-08T17:36:39.268Z,19.29
2023-05-08T17:39:05.771Z,19.09
2023-05-08T17:41:32.264Z,19.08
2023-05-08T17:43:58.805Z,19.11
2023-05-08T17:46:25.322Z,19.06
2023-05-08T17:48:51.779Z,18.91
2023-05-08T17:51:18.316Z,18.86
2023-05-08T17:53:44.831Z,18.83
2023-05-08T17:56:11.725Z,18.79
2023-05-08T17:58:38.176Z,18.78
2023-05-08T18:01:06.181Z,18.73
2023-05-08T18:03:32.718Z,18.73
2023-05-08T18:05:59.311Z,18.73
2023-05-08T18:08:25.849Z,18.75
2023-05-08T18:10:52.344Z,18.72
2023-05-08T18:13:18.815Z,18.66
2023-05-08T18:15:45.447Z,18.54
2023-05-08T18:18:11.943Z,18.52
2023-05-08T18:20:38.443Z,18.49
2023-05-08T18:23:04.908Z,18.42
2023-05-08T18:25:31.403Z,18.38
2023-05-08T18:27:58.878Z,18.35
2023-05-08T18:30:25.454Z,18.35
2023-05-08T18:32:53.219Z,18.32
2023-05-08T18:35:21.554Z,18.33
2023-05-08T18:37:48.151Z,18.34
2023-05-08T18:40:14.869Z,18.30
2023-05-08T18:42:41.586Z,18.34
2023-05-08T18:45:08.841Z,18.35
2023-05-08T18:47:35.304Z,18.35
2023-05-08T18:50:01.805Z,18.35
2023-05-08T18:52:28.312Z,18.28
2023-05-08T18:54:54.780Z,18.28
2023-05-08T18:57:21.211Z,18.29
2023-05-08T18:59:47.671Z,18.27
2023-05-08T19:02:14.524Z,18.23
2023-05-08T19:04:41.040Z,18.17
2023-05-08T19:07:07.523Z,18.13
2023-05-08T19:09:34.138Z,18.04
2023-05-08T19:12:00.693Z,18.05
2023-05-08T19:14:27.276Z,18.03
2023-05-08T19:16:55.615Z,17.96
2023-05-08T19:19:23.503Z,17.91
2023-05-08T19:21:49.964Z,17.89
2023-05-08T19:24:20.364Z,17.87
2023-05-08T19:26:47.342Z,17.79
2023-05-08T19:29:13.872Z,17.71
2023-05-08T19:31:40.465Z,17.67
2023-05-08T19:34:07.323Z,17.64
2023-05-08T19:36:36.070Z,17.50
2023-05-08T19:39:04.109Z,17.55
2023-05-08T19:41:30.559Z,17.47
2023-05-08T19:43:57.013Z,17.45
2023-05-08T19:46:23.616Z,17.38
2023-05-08T19:48:50.169Z,17.41
2023-05-08T19:51:16.794Z,17.34
2023-05-08T19:53:43.378Z,17.27
2023-05-08T19:56:09.849Z,17.27
2023-05-08T19:58:36.303Z,17.24
2023-05-08T20:01:02.844Z,17.24
2023-05-08T20:03:29.514Z,17.24
2023-05-08T20:05:56.558Z,17.22
2023-05-08T20:08:23.064Z,17.10
2023-05-08T20:10:49.602Z,17.09
2023-05-08T20:13:17.220Z,17.10
2023-05-08T20:15:43.934Z,17.03
2023-05-08T20:18:10.499Z,17.02
2023-05-08T20:20:37.090Z,16.97
2023-05-08T20:23:04.384Z,16.98
2023-05-08T20:25:30.976Z,16.98
2023-05-08T20:27:57.462Z,16.97
2023-05-08T20:30:24.150Z,16.97
2023-05-08T20:32:50.742Z,16.98
2023-05-08T20:35:17.273Z,16.95
2023-05-08T20:37:45.217Z,16.93
2023-05-08T20:40:12.518Z,16.84
2023-05-08T20:42:41.097Z,16.80
2023-05-08T20:45:09.159Z,16.74
2023-05-08T20:47:36.048Z,16.69
2023-05-08T20:50:03.113Z,16.71
2023-05-08T20:52:32.106Z,16.67
2023-05-08T20:54:59.010Z,16.58
2023-05-08T20:57:25.749Z,16.54
2023-05-08T20:59:52.220Z,16.55
2023-05-08T21:02:18.732Z,16.48
2023-05-08T21:04:45.245Z,16.50
2023-05-08T21:07:11.838Z,16.48
2023-05-08T21:09:38.293Z,16.45
2023-05-08T21:12:04.993Z,16.47
2023-05-08T21:14:31.505Z,16.41
2023-05-08T21:16:57.981Z,16.36
2023-05-08T21:19:24.611Z,16.32
2023-05-08T21:21:51.198Z,16.32
2023-05-08T21:24:17.773Z,16.27
2023-05-08T21:26:44.216Z,16.24
2023-05-08T21:29:11.275Z,16.26
2023-05-08T21:31:37.794Z,16.27
2023-05-08T21:34:04.503Z,16.25
2023-05-08T21:36:32.184Z,16.24
2023-05-08T21:38:58.708Z,16.24
2023-05-08T21:41:25.223Z,16.24
2023-05-08T21:43:51.779Z,16.22
2023-05-08T21:46:18.331Z,16.20
2023-05-08T21:48:44.793Z,16.16
2023-05-08T21:51:11.504Z,16.15
2023-05-08T21:53:38.054Z,16.10
2023-05-08T21:56:04.899Z,16.01
2023-05-08T21:58:31.366Z,15.95
2023-05-08T22:00:58.859Z,15.95
2023-05-08T22:03:25.754Z,15.89
2023-05-08T22:05:52.358Z,15.87
2023-05-08T22:08:18.836Z,15.78
2023-05-08T22:10:46.179Z,15.76
2023-05-08T22:13:13.142Z,15.71
2023-05-08T22:15:39.719Z,15.70
2023-05-08T22:18:06.218Z,15.72
2023-05-08T22:20:33.220Z,15.68
2023-05-08T22:22:59.727Z,15.68
2023-05-08T22:25:26.768Z,15.67
2023-05-08T22:27:53.393Z,15.62
2023-05-08T22:30:20.141Z,15.64
2023-05-08T22:32:53.365Z,15.64
2023-05-08T22:35:22.388Z,15.61
2023-05-08T22:37:48.858Z,15.59
2023-05-08T22:40:15.387Z,15.56
2023-05-08T22:42:42.452Z,15.57
2023-05-08T22:45:09.950Z,15.55
2023-05-08T22:47:36.489Z,15.49
2023-05-08T22:50:08.261Z,15.45
2023-05-08T22:52:36.082Z,15.38
2023-05-08T22:55:03.097Z,15.37
2023-05-08T22:57:29.606Z,15.36
2023-05-08T22:59:56.088Z,15.35
2023-05-08T23:02:22.635Z,15.31
2023-05-08T23:04:49.316Z,15.26
2023-05-08T23:07:16.088Z,15.26
2023-05-08T23:09:42.539Z,15.22
2023-05-08T23:12:09.085Z,15.18
2023-05-08T23:14:35.609Z,15.17
2023-05-08T23:17:02.180Z,15.13
2023-05-08T23:19:28.689Z,15.11
2023-05-08T23:21:55.129Z,15.07
2023-05-08T23:24:21.564Z,15.04
2023-05-08T23:26:49.678Z,15.02
2023-05-08T23:29:16.154Z,14.99
2023-05-08T23:31:42.623Z,14.97
2023-05-08T23:34:09.193Z,14.98
2023-05-08T23:36:35.873Z,14.95
2023-05-08T23:39:02.390Z,14.90
2023-05-08T23:41:28.906Z,14.90
2023-05-08T23:43:55.969Z,14.84
2023-05-08T23:46:22.440Z,14.79
2023-05-08T23:48:49.009Z,14.79
2023-05-08T23:51:15.459Z,14.76
2023-05-08T23:53:42.287Z,14.72
2023-05-08T23:56:08.948Z,14.65
2023-05-08T23:58:35.566Z,14.64
